Time;durP1;ratioP1;P1;durP2;ratioP2;P2;SDS_P1;SDS_P2;PMS_P1;PMS_P2;Temp;Humidity;BMP_temperature;BMP_pressure;BME280_temperature;BME280_humidity;BME280_pressure;Samples;Min_cycle;Max_cycle;Signal;HPM_P1;HPM_P2
2023/03/11 00:00:44;;;;;;;10.77;9.63;;;;;;;12.41;72.78;93121.72;4967505;28;20279;-66
2023/03/11 00:03:12;;;;;;;12.10;10.82;;;;;;;12.52;72.58;93153.50;4968213;28;20255;-66
2023/03/11 00:05:39;;;;;;;11.30;10.20;;;;;;;12.28;72.97;93152.38;4967692;28;20188;-65
2023/03/11 00:08:07;;;;;;;9.45;7.90;;;;;;;12.31;73.03;93151.16;4967494;28;20196;-65
2023/03/11 00:10:36;;;;;;;7.32;6.63;;;;;;;12.11;71.68;93162.56;4964993;28;20208;-66
2023/03/11 00:13:03;;;;;;;5.22;4.75;;;;;;;12.07;70.11;93121.84;4967895;28;20196;-66
2023/03/11 00:15:30;;;;;;;3.30;3.00;;;;;;;11.85;70.37;93121.25;4965297;28;20310;-66
2023/03/11 00:17:56;;;;;;;3.10;2.80;;;;;;;12.00;69.66;93149.19;4966671;28;20322;-67
2023/03/11 00:20:24;;;;;;;2.28;1.77;;;;;;;12.13;68.37;93109.66;4956911;28;20191;-67
2023/03/11 00:22:51;;;;;;;2.05;1.80;;;;;;;12.18;67.89;93124.84;4968037;28;20196;-66
2023/03/11 00:25:17;;;;;;;2.50;1.35;;;;;;;11.99;67.93;93116.78;4968816;28;20227;-67
2023/03/11 00:27:43;;;;;;;1.58;1.40;;;;;;;12.08;67.81;93135.81;4963322;28;20622;-67
2023/03/11 00:30:11;;;;;;;1.63;1.40;;;;;;;12.17;68.22;93134.59;4967012;28;20362;-66
2023/03/11 00:32:36;;;;;;;1.10;1.00;;;;;;;11.79;68.45;93132.63;4963776;28;20204;-66
2023/03/11 00:35:02;;;;;;;3.08;1.30;;;;;;;12.04;68.17;93130.16;4967136;28;20200;-66
2023/03/11 00:37:28;;;;;;;2.83;1.38;;;;;;;12.12;67.26;93123.84;4965327;28;20205;-67
2023/03/11 00:39:53;;;;;;;1.75;1.30;;;;;;;12.23;67.88;93123.19;4968642;28;20469;-66
2023/03/11 00:42:18;;;;;;;2.42;1.05;;;;;;;11.81;68.44;93117.41;4967814;28;20230;-67
2023/03/11 00:44:44;;;;;;;1.88;1.30;;;;;;;11.91;68.95;93125.72;4968503;28;20188;-68
2023/03/11 00:47:10;;;;;;;1.60;1.10;;;;;;;12.02;68.33;93121.63;4966995;28;20196;-68
2023/03/11 00:49:36;;;;;;;1.30;0.90;;;;;;;12.03;68.84;93111.91;4967684;28;20275;-68
2023/03/11 00:52:02;;;;;;;3.13;1.02;;;;;;;12.05;68.78;93109.88;4964562;28;20188;-68
2023/03/11 00:54:28;;;;;;;1.58;1.00;;;;;;;12.07;69.15;93097.31;4963360;28;20224;-67
2023/03/11 00:56:53;;;;;;;0.73;0.73;;;;;;;12.12;68.74;93090.41;4967058;28;20220;-69
2023/03/11 00:59:19;;;;;;;1.88;1.00;;;;;;;12.08;69.42;93077.84;4969388;28;20184;-68
2023/03/11 01:01:44;;;;;;;1.80;1.35;;;;;;;12.05;69.83;93075.63;4968190;28;20199;-68
2023/03/11 01:04:09;;;;;;;1.00;0.90;;;;;;;12.11;69.77;93080.09;4965037;28;20195;-67
2023/03/11 01:06:35;;;;;;;1.42;0.90;;;;;;;12.20;69.23;93081.47;4964202;28;20196;-68
2023/03/11 01:09:00;;;;;;;1.20;0.90;;;;;;;12.07;69.81;93076.25;4967826;28;20211;-67
2023/03/11 01:11:26;;;;;;;1.10;1.00;;;;;;;12.11;69.36;93069.56;4971114;28;20716;-67
2023/03/11 01:13:51;;;;;;;2.60;1.20;;;;;;;12.04;69.51;93063.50;4970977;28;20283;-68
2023/03/11 01:16:17;;;;;;;1.45;0.95;;;;;;;11.90;70.62;93060.91;4969275;28;20255;-68
2023/03/11 01:18:42;;;;;;;1.00;0.90;;;;;;;11.99;71.02;93063.31;4963173;28;20211;-68
2023/03/11 01:21:08;;;;;;;2.63;1.00;;;;;;;12.09;71.01;93059.22;4970847;28;20303;-68
2023/03/11 01:23:33;;;;;;;1.42;1.00;;;;;;;12.08;71.06;93047.06;4971502;28;20203;-67
2023/03/11 01:25:59;;;;;;;1.27;0.90;;;;;;;12.10;70.25;93045.00;4971567;28;20203;-68
2023/03/11 01:28:24;;;;;;;4.57;1.33;;;;;;;11.89;70.58;93032.13;4972591;28;20192;-68
2023/03/11 01:30:50;;;;;;;3.42;1.08;;;;;;;11.94;70.67;93034.16;4970541;28;20196;-68
2023/03/11 01:33:18;;;;;;;1.48;1.08;;;;;;;11.82;70.06;93029.50;4975010;28;20199;-68
2023/03/11 01:35:45;;;;;;;1.10;1.00;;;;;;;11.92;70.11;93023.81;4969360;28;20208;-67
2023/03/11 01:38:11;;;;;;;1.23;0.90;;;;;;;11.99;69.08;93010.63;4971139;28;20222;-67
2023/03/11 01:40:40;;;;;;;2.15;0.80;;;;;;;11.77;69.74;93021.41;4971338;28;20342;-68
2023/03/11 01:43:38;;;;;;;1.30;0.95;;;;;;;11.83;69.58;93004.78;4970822;28;20348;-68
2023/03/11 01:46:06;;;;;;;1.60;1.00;;;;;;;11.80;69.83;93001.75;4970119;28;20203;-69
2023/03/11 01:48:32;;;;;;;1.33;0.90;;;;;;;11.85;69.65;92989.59;4965353;28;20204;-67
2023/03/11 01:50:58;;;;;;;1.63;0.88;;;;;;;11.63;70.54;92981.16;4969172;28;20218;-68
2023/03/11 01:53:24;;;;;;;2.45;1.08;;;;;;;11.66;70.17;92985.22;4971083;28;20184;-68
2023/03/11 01:55:49;;;;;;;2.13;1.20;;;;;;;11.76;70.72;92996.13;4968562;28;20279;-68
2023/03/11 01:58:21;;;;;;;1.05;0.80;;;;;;;11.83;70.43;92999.50;4971777;28;20295;-66
2023/03/11 02:00:47;;;;;;;1.05;0.65;;;;;;;12.03;67.98;93017.06;4967846;28;20199;-66
2023/03/11 02:03:33;;;;;;;0.90;0.85;;;;;;;11.18;70.97;93025.00;4971573;28;20188;-65
2023/03/11 02:06:01;;;;;;;3.30;1.30;;;;;;;11.00;73.64;93034.28;4968893;28;20185;-66
2023/03/11 02:08:28;;;;;;;2.50;1.33;;;;;;;11.22;73.01;93026.19;4961657;28;20211;-66
2023/03/11 02:10:55;;;;;;;1.92;1.60;;;;;;;11.33;72.42;93035.28;4971354;28;20188;-66
2023/03/11 02:13:21;;;;;;;1.95;1.75;;;;;;;11.44;72.11;93038.13;4971179;28;20195;-66
2023/03/11 02:15:47;;;;;;;2.30;2.10;;;;;;;11.45;72.05;93037.09;4967822;28;20240;-66
2023/03/11 02:18:14;;;;;;;2.58;1.92;;;;;;;11.45;71.95;93047.63;4959092;28;20227;-66
2023/03/11 02:20:39;;;;;;;2.78;2.08;;;;;;;11.38;71.73;93056.53;4970500;28;20262;-67
2023/03/11 02:23:05;;;;;;;2.90;1.95;;;;;;;11.55;71.14;93062.19;4971671;28;20200;-66
2023/03/11 02:25:42;;;;;;;4.00;2.00;;;;;;;11.60;71.19;93055.28;4971631;28;20207;-66
2023/03/11 02:28:11;;;;;;;2.60;2.40;;;;;;;11.53;70.97;93061.56;4971242;28;20204;-67
2023/03/11 02:30:40;;;;;;;3.65;2.47;;;;;;;11.53;71.13;93067.66;4966661;28;20591;-67
2023/03/11 02:33:07;;;;;;;3.10;2.67;;;;;;;11.60;70.42;93068.44;4968355;28;20215;-67
2023/03/11 02:35:33;;;;;;;3.38;2.83;;;;;;;11.48;70.72;93052.47;4971815;28;20240;-67
2023/03/11 02:37:58;;;;;;;3.85;3.30;;;;;;;11.58;70.64;93056.50;4970828;28;20230;-67
2023/03/11 02:40:24;;;;;;;3.33;3.00;;;;;;;11.51;70.67;93053.06;4968823;28;20203;-67
2023/03/11 02:42:56;;;;;;;4.22;3.22;;;;;;;11.45;70.88;93046.81;4970565;28;20216;-67
2023/03/11 02:45:24;;;;;;;4.00;2.80;;;;;;;11.47;70.79;93050.84;4968867;28;20203;-67
2023/03/11 02:47:51;;;;;;;3.35;2.63;;;;;;;11.39;70.79;93047.63;4968688;28;20200;-66
2023/03/11 02:50:18;;;;;;;4.15;3.75;;;;;;;11.49;70.13;93069.06;4969360;28;20204;-67
2023/03/11 02:52:44;;;;;;;4.32;3.30;;;;;;;11.45;70.98;93076.56;4968837;28;20192;-67
2023/03/11 02:55:14;;;;;;;3.22;3.03;;;;;;;11.48;70.73;93081.41;4970310;28;20247;-67
2023/03/11 02:57:40;;;;;;;4.00;3.30;;;;;;;11.45;70.55;93079.19;4970475;28;20246;-67
2023/03/11 03:00:13;;;;;;;4.07;3.65;;;;;;;11.46;70.55;93070.28;4970375;28;20180;-66
2023/03/11 03:02:40;;;;;;;3.85;3.55;;;;;;;11.38;71.11;93073.13;4969622;28;20195;-67
2023/03/11 03:05:06;;;;;;;5.15;4.18;;;;;;;11.46;70.88;93059.75;4964148;28;20196;-67
2023/03/11 03:07:32;;;;;;;5.10;4.60;;;;;;;11.47;70.04;93071.91;4971250;28;20196;-67
2023/03/11 03:09:58;;;;;;;5.27;4.77;;;;;;;11.27;71.16;93066.66;4970149;28;20223;-66
2023/03/11 03:12:23;;;;;;;6.50;5.90;;;;;;;11.32;70.72;93062.63;4969671;28;20200;-66
2023/03/11 03:14:49;;;;;;;6.40;5.80;;;;;;;11.32;71.02;93075.78;4967411;28;20235;-64
2023/03/11 03:17:14;;;;;;;5.57;5.18;;;;;;;11.43;70.66;93067.25;4968292;28;20235;-64
2023/03/11 03:19:40;;;;;;;5.90;5.40;;;;;;;11.37;70.77;93068.88;4970061;28;20250;-66
2023/03/11 03:22:05;;;;;;;6.43;5.82;;;;;;;11.35;70.90;93068.25;4970253;28;20196;-66
2023/03/11 03:24:30;;;;;;;6.72;6.22;;;;;;;11.34;71.16;93069.28;4968353;28;20200;-65
2023/03/11 03:26:56;;;;;;;6.07;5.57;;;;;;;11.33;71.20;93077.38;4969294;28;20199;-65
2023/03/11 03:29:22;;;;;;;5.80;5.30;;;;;;;11.32;71.58;93067.88;4969422;28;20248;-65
2023/03/11 03:31:47;;;;;;;5.27;4.87;;;;;;;11.34;71.28;93073.75;4970236;28;20271;-65
2023/03/11 03:34:13;;;;;;;5.28;4.20;;;;;;;11.27;71.15;93071.09;4970425;28;20216;-65
2023/03/11 03:36:38;;;;;;;4.72;4.32;;;;;;;11.34;70.53;93087.72;4966258;28;20284;-65
2023/03/11 03:39:04;;;;;;;5.45;4.13;;;;;;;11.35;70.49;93072.72;4968994;28;20247;-66
2023/03/11 03:41:30;;;;;;;4.88;4.40;;;;;;;11.25;71.01;93071.34;4968261;28;20208;-66
2023/03/11 03:43:55;;;;;;;4.83;3.80;;;;;;;11.34;70.92;93061.41;4970149;28;20307;-65
2023/03/11 03:46:21;;;;;;;4.10;3.80;;;;;;;11.25;71.05;93057.34;4966581;28;20196;-65
2023/03/11 03:48:46;;;;;;;4.50;3.45;;;;;;;11.06;71.15;93063.44;4969200;28;20323;-65
2023/03/11 03:51:13;;;;;;;4.07;3.75;;;;;;;11.19;70.95;93058.16;4965435;28;20196;-65
2023/03/11 03:53:39;;;;;;;3.42;3.15;;;;;;;11.25;70.85;93054.72;4968562;28;20223;-65
2023/03/11 03:56:10;;;;;;;3.67;2.90;;;;;;;10.94;70.26;93055.34;4969952;28;20278;-64
2023/03/11 03:58:36;;;;;;;3.43;3.13;;;;;;;11.13;71.36;93048.47;4965524;28;20238;-67
2023/03/11 04:01:02;;;;;;;3.78;3.28;;;;;;;11.10;71.64;93054.13;4967794;28;20200;-66
2023/03/11 04:03:28;;;;;;;3.58;3.10;;;;;;;11.21;71.37;93059.59;4969745;28;20282;-65
2023/03/11 04:05:53;;;;;;;3.70;3.40;;;;;;;11.15;71.28;93059.59;4969787;28;20521;-66
2023/03/11 04:08:19;;;;;;;2.85;2.65;;;;;;;11.05;70.43;93052.09;4968318;28;20204;-66
2023/03/11 04:10:54;;;;;;;1.42;1.30;;;;;;;11.15;68.05;93052.50;4964036;28;20223;-66
2023/03/11 04:13:20;;;;;;;1.80;1.65;;;;;;;11.17;67.74;93052.28;4967391;28;20254;-66
2023/03/11 04:15:45;;;;;;;1.17;1.15;;;;;;;11.35;66.58;93062.19;4967715;28;20946;-66
2023/03/11 04:18:11;;;;;;;2.17;1.98;;;;;;;11.48;65.25;93056.91;4964776;28;20200;-65
2023/03/11 04:20:37;;;;;;;0.90;0.90;;;;;;;11.37;63.27;93062.81;4970428;28;20196;-65
2023/03/11 04:23:03;;;;;;;0.68;0.68;;;;;;;11.32;62.46;93063.41;4969756;28;20204;-66
2023/03/11 04:25:28;;;;;;;0.60;0.60;;;;;;;11.22;61.82;93061.19;4970227;28;20220;-66
2023/03/11 04:27:54;;;;;;;0.60;0.60;;;;;;;11.29;61.09;93063.81;4966282;28;20196;-65
2023/03/11 04:30:19;;;;;;;0.50;0.50;;;;;;;11.38;60.71;93073.13;4971462;28;20223;-66
2023/03/11 04:32:44;;;;;;;0.60;0.60;;;;;;;11.49;61.11;93061.16;4969864;28;20287;-66
2023/03/11 04:35:10;;;;;;;1.23;0.90;;;;;;;11.57;62.12;93052.25;4966984;28;20196;-66
2023/03/11 04:37:35;;;;;;;1.50;1.40;;;;;;;11.61;64.47;93061.34;4950295;28;20556;-65
2023/03/11 04:40:02;;;;;;;2.47;2.00;;;;;;;11.66;65.15;93053.66;4968410;28;20184;-65
2023/03/11 04:42:27;;;;;;;2.97;1.92;;;;;;;11.59;65.73;93069.44;4971045;28;20192;-65
2023/03/11 04:44:53;;;;;;;0.90;0.65;;;;;;;11.50;60.13;93056.72;4972896;28;20253;-64
2023/03/11 04:47:19;;;;;;;1.60;0.90;;;;;;;11.60;58.78;93052.66;4967272;28;20283;-64
2023/03/11 04:49:44;;;;;;;0.68;0.50;;;;;;;11.61;58.60;93058.72;4973655;28;20223;-65
2023/03/11 04:52:09;;;;;;;0.90;0.65;;;;;;;11.65;58.40;93066.00;4975125;28;20262;-64
2023/03/11 04:54:35;;;;;;;0.75;0.68;;;;;;;11.53;58.58;93058.94;4974385;28;20199;-64
2023/03/11 04:57:00;;;;;;;0.55;0.55;;;;;;;11.50;57.15;93060.16;4974306;28;20203;-64
2023/03/11 04:59:26;;;;;;;0.40;0.40;;;;;;;11.32;56.85;93063.41;4974172;28;20219;-64
2023/03/11 05:01:51;;;;;;;0.40;0.40;;;;;;;11.40;56.82;93072.94;4971660;28;20195;-64
2023/03/11 05:04:17;;;;;;;0.63;0.40;;;;;;;11.29;55.15;93074.34;4970302;28;20203;-64
2023/03/11 05:06:42;;;;;;;0.50;0.50;;;;;;;11.33;55.28;93080.81;4972148;28;20252;-65
2023/03/11 05:09:07;;;;;;;1.20;0.50;;;;;;;11.44;54.58;93090.75;4971582;28;20221;-66
2023/03/11 05:11:33;;;;;;;0.45;0.45;;;;;;;11.57;54.33;93081.19;4971383;28;20199;-66
2023/03/11 05:13:58;;;;;;;0.40;0.40;;;;;;;11.55;55.17;93084.06;4970980;28;20192;-65
2023/03/11 05:16:24;;;;;;;1.40;0.60;;;;;;;11.66;55.25;93095.78;4972244;28;20239;-64
2023/03/11 05:18:49;;;;;;;0.40;0.40;;;;;;;11.42;56.28;93094.59;4974592;28;20188;-63
2023/03/11 05:21:15;;;;;;;1.02;0.52;;;;;;;11.76;55.50;93095.34;4972203;28;20203;-63
2023/03/11 05:23:40;;;;;;;1.23;0.60;;;;;;;11.61;55.52;93098.22;4971157;28;20192;-63
2023/03/11 05:26:06;;;;;;;0.50;0.40;;;;;;;11.50;55.60;93097.00;4973129;28;20192;-63
2023/03/11 05:28:31;;;;;;;0.40;0.40;;;;;;;11.79;53.71;93111.56;4973518;28;20196;-64
2023/03/11 05:30:57;;;;;;;0.45;0.40;;;;;;;11.52;54.73;93104.69;4970459;28;20191;-63
2023/03/11 05:33:22;;;;;;;0.40;0.40;;;;;;;11.51;54.41;93122.31;4973684;28;20192;-64
2023/03/11 05:35:50;;;;;;;0.50;0.50;;;;;;;11.73;54.32;93116.81;4971552;28;20193;-63
2023/03/11 05:38:15;;;;;;;0.50;0.50;;;;;;;11.58;54.64;93117.06;4971491;28;20208;-63
2023/03/11 05:40:41;;;;;;;0.68;0.68;;;;;;;11.61;54.32;93116.63;4968443;28;20220;-63
2023/03/11 05:43:06;;;;;;;0.38;0.35;;;;;;;11.79;54.02;93119.44;4970359;28;20290;-64
2023/03/11 05:45:32;;;;;;;0.50;0.50;;;;;;;11.92;53.45;93121.25;4973170;28;20206;-64
2023/03/11 05:47:57;;;;;;;0.60;0.60;;;;;;;11.94;53.31;93123.69;4971937;28;20210;-64
2023/03/11 05:50:22;;;;;;;0.40;0.40;;;;;;;12.07;52.33;93127.09;4973341;28;20216;-64
2023/03/11 05:52:48;;;;;;;0.82;0.70;;;;;;;11.76;53.57;93122.50;4970341;28;20192;-64
2023/03/11 05:55:13;;;;;;;3.90;0.73;;;;;;;11.83;53.34;93130.38;4970297;28;20192;-63
2023/03/11 05:57:39;;;;;;;0.50;0.50;;;;;;;12.11;52.53;93145.97;4971925;28;20285;-63
2023/03/11 06:00:11;;;;;;;0.55;0.55;;;;;;;12.00;53.52;93138.66;4968987;28;20188;-63
2023/03/11 06:02:40;;;;;;;0.68;0.50;;;;;;;11.89;54.14;93148.84;4970433;28;20204;-64
2023/03/11 06:05:06;;;;;;;1.65;0.88;;;;;;;11.89;55.28;93158.53;4970286;28;20200;-64
2023/03/11 06:07:34;;;;;;;0.85;0.45;;;;;;;12.23;53.94;93152.19;4955343;28;20223;-64
2023/03/11 06:09:59;;;;;;;0.90;0.80;;;;;;;12.00;55.35;93167.63;4965986;28;20216;-65
2023/03/11 06:12:25;;;;;;;0.52;0.52;;;;;;;11.93;55.21;93161.59;4972127;28;20196;-64
2023/03/11 06:14:52;;;;;;;1.55;0.77;;;;;;;11.97;54.99;93162.78;4961458;28;20598;-64
2023/03/11 06:17:18;;;;;;;0.52;0.52;;;;;;;11.87;54.70;93160.59;4970043;28;20196;-65
2023/03/11 06:19:43;;;;;;;0.50;0.50;;;;;;;11.88;55.10;93168.28;4971745;28;20302;-64
2023/03/11 06:22:08;;;;;;;0.82;0.52;;;;;;;11.62;56.25;93173.53;4970371;28;20291;-64
2023/03/11 06:24:34;;;;;;;0.63;0.60;;;;;;;11.60;56.93;93170.28;4971769;28;20198;-64
2023/03/11 06:26:59;;;;;;;0.60;0.60;;;;;;;11.58;57.90;93180.22;4966733;28;20211;-64
2023/03/11 06:29:25;;;;;;;0.50;0.50;;;;;;;11.80;56.56;93171.09;4970296;28;20221;-64
2023/03/11 06:31:51;;;;;;;1.30;0.85;;;;;;;11.80;57.20;93165.03;4969121;28;20211;-64
2023/03/11 06:34:16;;;;;;;0.55;0.55;;;;;;;11.73;57.54;93166.84;4969356;28;20207;-64
2023/03/11 06:36:42;;;;;;;0.95;0.60;;;;;;;11.84;57.36;93167.03;4972709;28;20196;-65
2023/03/11 06:39:08;;;;;;;0.98;0.40;;;;;;;11.94;56.54;93171.09;4970956;28;20213;-65
2023/03/11 06:41:33;;;;;;;1.42;0.68;;;;;;;11.80;55.73;93165.81;4971315;28;20196;-64
2023/03/11 06:43:59;;;;;;;0.40;0.40;;;;;;;12.13;55.05;93160.53;4971495;28;20192;-65
2023/03/11 06:46:24;;;;;;;0.70;0.70;;;;;;;12.00;55.68;93170.28;4971390;28;20279;-66
2023/03/11 06:48:53;;;;;;;1.00;0.60;;;;;;;11.75;56.90;93165.63;4970797;28;20204;-65
2023/03/11 06:51:19;;;;;;;1.05;0.60;;;;;;;11.81;56.68;93164.78;4971599;28;20227;-65
2023/03/11 06:53:49;;;;;;;2.67;0.70;;;;;;;11.90;55.99;93171.50;4967130;28;20291;-66
2023/03/11 06:56:14;;;;;;;0.47;0.43;;;;;;;12.10;53.30;93163.56;4968176;28;20203;-65
2023/03/11 06:58:41;;;;;;;1.10;0.40;;;;;;;11.95;53.76;93168.28;4968509;28;20282;-64
2023/03/11 07:01:10;;;;;;;0.60;0.50;;;;;;;11.85;54.17;93167.84;4971148;28;20339;-64
2023/03/11 07:03:35;;;;;;;2.17;0.80;;;;;;;11.74;55.51;93173.75;4971311;28;20251;-64
2023/03/11 07:06:01;;;;;;;0.60;0.57;;;;;;;11.79;54.93;93184.47;4970552;28;20184;-65
2023/03/11 07:08:27;;;;;;;0.85;0.82;;;;;;;11.64;55.86;93171.50;4967945;28;20195;-64
2023/03/11 07:11:04;;;;;;;0.82;0.70;;;;;;;11.88;55.95;93178.00;4968987;28;20304;-65
2023/03/11 07:13:30;;;;;;;1.23;0.60;;;;;;;11.96;55.97;93190.97;4966889;28;20192;-65
2023/03/11 07:16:16;;;;;;;1.40;0.70;;;;;;;11.61;57.07;93188.53;4968142;28;20443;-64
2023/03/11 07:18:43;;;;;;;1.02;0.65;;;;;;;11.60;57.49;93186.91;4982186;28;20204;-65
2023/03/11 07:21:12;;;;;;;1.02;0.65;;;;;;;11.89;55.67;93169.91;4986462;28;20196;-64
2023/03/11 07:23:38;;;;;;;0.88;0.68;;;;;;;11.88;56.57;93164.84;4965902;28;20252;-65
2023/03/11 07:26:03;;;;;;;1.30;0.70;;;;;;;12.10;55.01;93170.66;4967463;28;20211;-64
2023/03/11 07:28:29;;;;;;;1.17;0.88;;;;;;;12.29;54.94;93169.78;4971629;28;20200;-65
2023/03/11 07:30:55;;;;;;;0.80;0.80;;;;;;;12.30;54.47;93144.28;4965362;28;20349;-64
2023/03/11 07:33:22;;;;;;;1.15;0.80;;;;;;;12.40;54.12;93149.91;4967260;28;20226;-64
2023/03/11 07:35:48;;;;;;;1.10;0.60;;;;;;;12.31;53.94;93149.31;4970042;28;20184;-63
2023/03/11 07:38:16;;;;;;;0.60;0.60;;;;;;;12.59;53.04;93148.22;4980783;28;20197;-64
2023/03/11 07:40:42;;;;;;;1.00;0.90;;;;;;;12.35;54.11;93144.47;4967202;28;20252;-65
2023/03/11 07:43:08;;;;;;;2.47;1.17;;;;;;;12.61;53.47;93137.44;4951543;28;22438;-66
2023/03/11 07:45:33;;;;;;;1.95;1.08;;;;;;;12.73;53.81;93141.84;4969723;28;20207;-65
2023/03/11 07:48:01;;;;;;;1.85;0.80;;;;;;;12.61;52.45;93135.63;4967430;28;20287;-65
2023/03/11 07:50:26;;;;;;;2.00;1.00;;;;;;;12.61;52.95;93125.06;4969648;28;20249;-65
2023/03/11 07:52:52;;;;;;;1.60;0.90;;;;;;;12.79;51.02;93127.81;4968159;28;20206;-64
2023/03/11 07:55:17;;;;;;;1.40;0.93;;;;;;;12.94;49.94;93134.66;4966885;28;20233;-64
2023/03/11 07:57:46;;;;;;;2.10;0.85;;;;;;;12.79;50.54;93122.53;4968832;28;20195;-64
2023/03/11 08:00:13;;;;;;;2.55;0.90;;;;;;;12.67;49.85;93107.59;4969438;28;20287;-65
2023/03/11 08:02:38;;;;;;;3.20;1.20;;;;;;;12.57;50.37;93102.78;4963609;28;20185;-66
2023/03/11 08:05:04;;;;;;;1.70;1.00;;;;;;;12.78;50.39;93097.19;4970665;28;20200;-65
2023/03/11 08:07:31;;;;;;;1.60;1.17;;;;;;;12.78;50.92;93099.84;4951688;28;20196;-66
2023/03/11 08:09:57;;;;;;;1.52;1.27;;;;;;;12.99;50.65;93087.31;4969604;28;20208;-65
2023/03/11 08:12:22;;;;;;;3.72;1.70;;;;;;;12.88;51.25;93080.09;4968680;28;20195;-65
2023/03/11 08:14:48;;;;;;;3.53;1.63;;;;;;;13.02;49.89;93081.63;4969251;28;20267;-66
2023/03/11 08:17:13;;;;;;;1.10;0.93;;;;;;;13.00;49.40;93070.47;4984679;28;20188;-66
2023/03/11 08:19:39;;;;;;;2.28;1.00;;;;;;;13.08;49.17;93072.06;4969864;28;20219;-65
2023/03/11 08:22:04;;;;;;;5.00;1.33;;;;;;;13.42;46.41;93070.81;4969737;28;20199;-65
2023/03/11 08:24:29;;;;;;;2.28;0.85;;;;;;;13.24;46.51;93055.69;4970535;28;20188;-66
2023/03/11 08:26:55;;;;;;;3.50;1.15;;;;;;;13.29;46.13;93057.72;4968290;28;20189;-65
2023/03/11 08:29:22;;;;;;;2.15;0.90;;;;;;;13.14;46.44;93066.72;4964840;28;20223;-64
2023/03/11 08:31:48;;;;;;;1.25;1.00;;;;;;;13.16;46.11;93045.41;4961639;28;20199;-66
2023/03/11 08:34:14;;;;;;;1.70;0.82;;;;;;;13.41;45.67;93053.31;4953976;28;20258;-65
2023/03/11 08:36:40;;;;;;;1.70;0.80;;;;;;;13.30;46.32;93048.75;4958604;28;20198;-64
2023/03/11 08:39:06;;;;;;;0.70;0.70;;;;;;;13.43;45.85;93059.19;4957495;28;20267;-64
2023/03/11 08:41:31;;;;;;;1.48;1.05;;;;;;;13.53;45.32;93043.69;4959416;28;20243;-64
2023/03/11 08:43:57;;;;;;;1.40;1.00;;;;;;;13.14;45.87;93034.25;4954893;28;20190;-63
2023/03/11 08:46:27;;;;;;;1.35;0.85;;;;;;;13.29;45.52;93033.97;4954179;28;20207;-64
2023/03/11 08:48:54;;;;;;;1.95;0.80;;;;;;;13.58;43.90;93035.06;4948221;28;20288;-65
2023/03/11 08:51:20;;;;;;;1.10;0.90;;;;;;;13.55;44.42;93051.38;4959477;28;20188;-64
2023/03/11 08:53:46;;;;;;;2.15;1.15;;;;;;;13.69;43.89;93026.47;4959193;28;20287;-63
2023/03/11 08:56:11;;;;;;;1.08;0.90;;;;;;;13.65;43.72;93020.78;4958540;28;20192;-63
2023/03/11 08:58:37;;;;;;;2.13;0.90;;;;;;;13.57;44.02;93039.56;4953812;28;20196;-64
2023/03/11 09:01:04;;;;;;;2.13;1.13;;;;;;;13.65;44.18;93015.50;4957857;28;20223;-64
2023/03/11 09:03:34;;;;;;;1.40;1.00;;;;;;;13.71;43.98;93018.28;4971583;28;20195;-64
2023/03/11 09:06:01;;;;;;;1.00;0.80;;;;;;;13.67;44.17;93005.53;4959254;28;20184;-63
2023/03/11 09:08:27;;;;;;;3.20;0.85;;;;;;;14.00;43.43;93025.47;4958360;28;20184;-64
2023/03/11 09:10:53;;;;;;;0.80;0.77;;;;;;;14.00;43.02;93017.56;4961041;28;20212;-65
2023/03/11 09:13:19;;;;;;;4.13;1.65;;;;;;;14.20;43.41;93016.53;4965824;28;20216;-66
2023/03/11 09:16:21;;;;;;;1.38;1.00;;;;;;;14.11;43.74;93029.22;4962847;28;20274;-64
2023/03/11 09:18:47;;;;;;;6.25;1.20;;;;;;;14.19;43.38;93014.91;4963010;28;20232;-65
2023/03/11 09:21:12;;;;;;;1.52;0.90;;;;;;;13.97;43.75;93023.28;4965943;28;20216;-65
2023/03/11 09:23:39;;;;;;;1.65;1.02;;;;;;;14.00;43.81;93014.13;4963579;28;20204;-65
2023/03/11 09:26:04;;;;;;;1.88;1.00;;;;;;;13.93;44.75;93011.56;4961144;28;20259;-65
2023/03/11 09:28:30;;;;;;;0.90;0.80;;;;;;;13.87;44.92;93002.69;4964526;28;20200;-67
2023/03/11 09:30:56;;;;;;;1.85;1.13;;;;;;;14.04;44.46;92997.59;4950365;28;20254;-69
2023/03/11 09:33:21;;;;;;;1.95;0.80;;;;;;;14.00;45.01;93006.97;4967808;28;20384;-68
2023/03/11 09:35:47;;;;;;;1.38;1.02;;;;;;;14.09;44.40;93008.31;4957540;28;20232;-66
2023/03/11 09:38:13;;;;;;;2.13;1.10;;;;;;;14.05;45.33;92999.19;4966482;28;20311;-63
2023/03/11 09:40:48;;;;;;;4.32;1.08;;;;;;;14.11;45.40;93002.78;4964083;28;20243;-64
2023/03/11 09:43:33;;;;;;;3.03;1.10;;;;;;;14.30;45.25;92990.34;4966869;28;20242;-67
2023/03/11 09:46:20;;;;;;;2.67;1.10;;;;;;;14.58;43.83;92992.44;4965905;28;20192;-63
2023/03/11 09:49:18;;;;;;;3.83;1.30;;;;;;;14.81;42.05;92993.53;4967820;28;20222;-67
2023/03/11 09:51:59;;;;;;;3.85;1.20;;;;;;;14.66;41.97;92999.25;4927251;29;20323;-64
2023/03/11 09:54:27;;;;;;;3.60;1.17;;;;;;;14.75;42.30;92992.59;4929489;29;20225;-66
2023/03/11 09:56:54;;;;;;;2.40;1.30;;;;;;;14.73;42.64;92984.09;4945389;28;20215;-66
2023/03/11 09:59:29;;;;;;;2.35;0.90;;;;;;;14.94;41.38;92982.72;4944372;29;20206;-64
2023/03/11 10:01:54;;;;;;;1.10;1.00;;;;;;;15.08;40.11;92975.41;4947149;29;20209;-65
2023/03/11 10:04:31;;;;;;;3.17;1.17;;;;;;;14.96;41.21;92988.59;4933381;29;20193;-64
2023/03/11 10:07:00;;;;;;;2.15;0.85;;;;;;;15.09;39.83;92990.25;4946999;28;20197;-65
2023/03/11 10:09:39;;;;;;;2.42;0.80;;;;;;;15.22;38.69;92971.50;4932435;29;20228;-67
2023/03/11 10:12:32;;;;;;;1.00;0.90;;;;;;;15.25;39.77;92991.41;4932306;29;20188;-67
2023/03/11 10:15:04;;;;;;;5.15;0.90;;;;;;;15.15;38.54;93008.66;4944702;29;20221;-64
2023/03/11 10:17:45;;;;;;;3.83;1.00;;;;;;;15.24;38.34;92995.91;4947335;29;20203;-66
2023/03/11 10:20:29;;;;;;;2.75;1.08;;;;;;;15.32;38.86;93006.16;4931519;29;20205;-65
2023/03/11 10:23:14;;;;;;;1.65;1.25;;;;;;;15.73;37.59;93000.97;4946568;29;20242;-67
2023/03/11 10:26:18;;;;;;;2.10;0.90;;;;;;;15.93;36.72;93011.19;4927468;29;20201;-66
2023/03/11 10:28:55;;;;;;;3.10;0.98;;;;;;;15.71;37.72;93003.84;4901361;29;20265;-67
2023/03/11 10:31:33;;;;;;;1.98;1.00;;;;;;;15.65;37.32;92997.59;4910619;29;20198;-64
2023/03/11 10:34:14;;;;;;;1.42;0.90;;;;;;;15.65;37.19;93000.25;4894783;29;20300;-65
2023/03/11 10:37:05;;;;;;;1.30;0.82;;;;;;;15.58;37.51;92996.94;4910126;29;20201;-64
2023/03/11 10:39:32;;;;;;;1.92;1.10;;;;;;;15.67;38.19;92989.44;4892692;29;20302;-64
2023/03/11 10:42:03;;;;;;;2.22;1.15;;;;;;;15.69;38.06;92998.00;4876676;29;20207;-64
2023/03/11 10:44:37;;;;;;;1.00;0.80;;;;;;;15.62;38.59;92991.97;4891470;29;20214;-64
2023/03/11 10:47:04;;;;;;;3.33;1.13;;;;;;;15.60;37.77;92988.75;4877348;29;20297;-64
2023/03/11 10:49:29;;;;;;;1.83;1.08;;;;;;;15.62;40.41;93002.56;4874896;29;20246;-64
2023/03/11 10:51:56;;;;;;;1.42;1.00;;;;;;;15.53;42.11;92999.47;4891331;29;20214;-64
2023/03/11 10:54:39;;;;;;;3.72;1.23;;;;;;;15.44;40.62;93017.53;4876934;29;20250;-64
2023/03/11 10:57:20;;;;;;;1.55;0.90;;;;;;;15.15;40.59;93007.84;4878533;29;20203;-64
2023/03/11 10:59:49;;;;;;;1.67;1.02;;;;;;;14.94;41.72;93025.91;4876387;29;20203;-64
2023/03/11 11:02:29;;;;;;;0.80;0.80;;;;;;;14.95;40.77;93030.16;4892342;29;20206;-64
2023/03/11 11:05:18;;;;;;;2.22;1.08;;;;;;;15.19;40.06;93040.78;4888500;29;20201;-64
2023/03/11 11:07:45;;;;;;;2.38;1.05;;;;;;;15.24;39.66;93027.66;4946518;29;20192;-64
2023/03/11 11:10:11;;;;;;;5.80;1.10;;;;;;;15.04;40.44;93027.97;4929342;29;20221;-64
2023/03/11 11:12:57;;;;;;;1.27;0.85;;;;;;;15.14;40.19;93022.13;4946520;29;20741;-65
2023/03/11 11:15:23;;;;;;;2.85;1.20;;;;;;;15.44;40.52;93014.88;4929566;29;20236;-65
2023/03/11 11:17:49;;;;;;;2.35;1.33;;;;;;;15.60;40.44;93010.72;4968129;28;20207;-65
2023/03/11 11:20:18;;;;;;;1.33;1.23;;;;;;;15.75;38.86;93001.56;4970699;28;20521;-65
2023/03/11 11:22:59;;;;;;;3.05;1.42;;;;;;;15.79;39.08;93003.47;4969465;28;20290;-64
2023/03/11 11:25:35;;;;;;;3.85;1.00;;;;;;;15.59;39.63;92995.88;4965798;28;20196;-64
2023/03/11 11:28:16;;;;;;;2.10;1.30;;;;;;;15.48;40.53;92987.97;4958369;28;20216;-64
2023/03/11 11:30:52;;;;;;;3.78;1.50;;;;;;;15.29;41.09;92998.66;4967558;28;20213;-65
2023/03/11 11:33:32;;;;;;;2.30;1.63;;;;;;;15.20;42.07;92995.53;4965991;28;20269;-64
2023/03/11 11:36:01;;;;;;;2.28;1.20;;;;;;;15.55;43.30;93002.69;4975346;28;20183;-64
2023/03/11 11:38:29;;;;;;;1.67;1.10;;;;;;;15.38;43.52;92985.88;4970321;28;20243;-65